createdAt,value
2022-08-20T00:01:19.522Z,5.00
2022-08-20T00:03:57.645Z,5.00
2022-08-20T00:07:00.273Z,5.67
2022-08-20T00:09:29.985Z,6.33
2022-08-20T00:11:57.441Z,5.00
2022-08-20T00:14:24.860Z,5.33
2022-08-20T00:16:53.029Z,6.33
2022-08-20T00:19:21.122Z,4.00
2022-08-20T00:21:53.086Z,7.00
2022-08-20T00:24:26.238Z,5.00
2022-08-20T00:26:54.361Z,7.00
2022-08-20T00:29:28.309Z,5.67
2022-08-20T00:31:56.393Z,5.33
2022-08-20T00:34:24.479Z,5.33
2022-08-20T00:36:52.543Z,4.33
2022-08-20T00:39:20.618Z,6.33
2022-08-20T00:41:48.726Z,6.00
2022-08-20T00:44:23.819Z,7.00
2022-08-20T00:46:51.840Z,5.00
2022-08-20T00:49:28.038Z,5.67
2022-08-20T00:51:59.956Z,5.00
2022-08-20T00:54:47.991Z,5.67
2022-08-20T00:57:27.315Z,5.00
2022-08-20T01:00:17.105Z,5.67
2022-08-20T01:02:45.171Z,5.67
2022-08-20T01:05:13.198Z,4.00
2022-08-20T01:07:41.256Z,6.00
2022-08-20T01:10:15.317Z,5.00
2022-08-20T01:12:48.371Z,4.67
2022-08-20T01:15:26.895Z,4.67
2022-08-20T01:17:59.467Z,5.33
2022-08-20T01:20:40.756Z,6.00
2022-08-20T01:23:33.574Z,5.33
2022-08-20T01:26:22.640Z,5.00
2022-08-20T01:28:55.692Z,6.00
2022-08-20T01:31:27.776Z,4.00
2022-08-20T01:33:55.826Z,5.67
2022-08-20T01:36:35.889Z,4.00
2022-08-20T01:39:04.940Z,7.00
2022-08-20T01:42:03.021Z,5.67
2022-08-20T01:44:31.090Z,3.75
2022-08-20T01:47:00.059Z,4.33
2022-08-20T01:49:30.168Z,5.00
2022-08-20T01:52:00.238Z,5.00
2022-08-20T01:54:28.266Z,5.00
2022-08-20T01:57:02.326Z,4.00
2022-08-20T01:59:30.388Z,7.00
2022-08-20T02:02:21.796Z,4.00
2022-08-20T02:04:49.501Z,5.33
2022-08-20T02:07:19.539Z,5.00
2022-08-20T02:09:47.602Z,4.33
2022-08-20T02:12:15.649Z,6.33
2022-08-20T02:14:44.720Z,4.50
2022-08-20T02:17:12.767Z,4.50
2022-08-20T02:19:49.819Z,5.00
2022-08-20T02:22:36.867Z,4.75
2022-08-20T02:25:06.922Z,5.25
2022-08-20T02:27:34.891Z,5.00
2022-08-20T02:30:28.610Z,4.33
2022-08-20T02:32:59.966Z,5.00
2022-08-20T02:35:28.241Z,4.25
2022-08-20T02:37:56.326Z,5.00
2022-08-20T02:40:31.130Z,5.00
2022-08-20T02:43:02.380Z,3.33
2022-08-20T02:45:30.482Z,4.00
2022-08-20T02:47:59.564Z,5.33
2022-08-20T02:50:28.620Z,4.00
2022-08-20T02:52:56.668Z,7.00
2022-08-20T02:55:49.698Z,5.00
2022-08-20T02:58:17.746Z,3.67
2022-08-20T03:00:45.798Z,6.67
2022-08-20T03:03:13.857Z,5.33
2022-08-20T03:05:42.897Z,4.67
2022-08-20T03:08:34.989Z,5.00
2022-08-20T03:11:03.006Z,4.00
2022-08-20T03:13:30.638Z,2.75
2022-08-20T03:16:00.109Z,4.67
2022-08-20T03:18:36.406Z,4.33
2022-08-20T03:21:04.426Z,5.33
2022-08-20T03:23:35.266Z,4.50
2022-08-20T03:26:04.304Z,6.00
2022-08-20T03:28:32.354Z,5.00
2022-08-20T03:31:00.416Z,4.00
2022-08-20T03:33:28.479Z,4.50
2022-08-20T03:35:56.630Z,3.75
2022-08-20T03:38:32.984Z,4.25
2022-08-20T03:41:02.638Z,4.67
2022-08-20T03:43:30.698Z,3.50
2022-08-20T03:45:58.778Z,4.00
2022-08-20T03:48:26.795Z,5.00
2022-08-20T03:50:54.841Z,5.67
2022-08-20T03:53:23.905Z,4.00
2022-08-20T03:56:00.491Z,4.00
2022-08-20T03:58:35.115Z,4.00
2022-08-20T04:01:04.173Z,5.33
2022-08-20T04:03:32.124Z,5.00
2022-08-20T04:06:00.172Z,4.00
2022-08-20T04:08:30.263Z,3.25
2022-08-20T04:11:00.718Z,5.50
2022-08-20T04:13:29.169Z,3.75
2022-08-20T04:15:57.392Z,4.67
2022-08-20T04:18:26.439Z,5.33
2022-08-20T04:21:18.492Z,4.00
2022-08-20T04:23:46.544Z,3.67
2022-08-20T04:26:14.574Z,4.25
2022-08-20T04:28:42.635Z,4.00
2022-08-20T04:31:10.683Z,3.50
2022-08-20T04:33:43.648Z,4.00
2022-08-20T04:36:11.843Z,3.00
2022-08-20T04:38:48.208Z,4.50
2022-08-20T04:41:24.197Z,2.50
2022-08-20T04:43:56.011Z,5.00
2022-08-20T04:46:45.300Z,3.25
2022-08-20T04:49:38.180Z,3.67
2022-08-20T04:52:06.127Z,3.67
2022-08-20T04:54:34.189Z,4.33
2022-08-20T04:57:03.245Z,5.00
2022-08-20T04:59:31.279Z,3.00
2022-08-20T05:01:59.336Z,4.00
2022-08-20T05:04:28.374Z,2.75
2022-08-20T05:06:57.427Z,5.00
2022-08-20T05:09:26.494Z,4.67
2022-08-20T05:11:54.531Z,4.00
2022-08-20T05:14:22.577Z,3.67
2022-08-20T05:17:16.652Z,3.00
2022-08-20T05:19:44.684Z,4.00
2022-08-20T05:22:12.722Z,5.67
2022-08-20T05:24:40.770Z,4.33
2022-08-20T05:27:08.558Z,7.50
2022-08-20T05:29:53.886Z,4.25
2022-08-20T05:32:22.930Z,4.00
2022-08-20T05:34:51.998Z,4.33
2022-08-20T05:37:20.059Z,3.00
2022-08-20T05:39:48.190Z,3.67
2022-08-20T05:42:16.178Z,4.00
2022-08-20T05:44:43.886Z,4.25
2022-08-20T05:47:11.250Z,3.50
2022-08-20T05:49:39.302Z,4.00
2022-08-20T05:52:07.346Z,4.00
2022-08-20T05:54:34.853Z,5.00
2022-08-20T05:57:03.446Z,4.00
2022-08-20T05:59:56.509Z,4.00
2022-08-20T06:02:42.567Z,6.00
2022-08-20T06:05:31.772Z,5.00
2022-08-20T06:08:07.860Z,5.33
2022-08-20T06:10:36.730Z,4.00
2022-08-20T06:13:05.786Z,5.00
2022-08-20T06:15:33.854Z,4.00
2022-08-20T06:18:08.375Z,5.00
2022-08-20T06:20:52.952Z,4.00
2022-08-20T06:23:21.004Z,4.00
2022-08-20T06:25:51.045Z,4.00
2022-08-20T06:28:20.113Z,6.00
2022-08-20T06:30:51.158Z,3.67
2022-08-20T06:33:19.386Z,3.00
2022-08-20T06:35:47.272Z,5.00
2022-08-20T06:38:15.312Z,4.00
2022-08-20T06:40:43.358Z,5.33
2022-08-20T06:43:12.443Z,4.00
2022-08-20T06:45:40.502Z,5.00
2022-08-20T06:48:39.232Z,4.33
2022-08-20T06:51:07.575Z,4.33
2022-08-20T06:53:36.512Z,5.00
2022-08-20T06:56:04.729Z,5.33
2022-08-20T06:58:37.763Z,5.00
2022-08-20T07:01:10.778Z,6.33
2022-08-20T07:03:42.206Z,4.50
2022-08-20T07:06:23.872Z,6.75
2022-08-20T07:08:51.982Z,4.75
2022-08-20T07:11:27.332Z,4.00
2022-08-20T07:13:57.147Z,5.00
2022-08-20T07:16:26.159Z,3.50
2022-08-20T07:18:54.206Z,5.00
2022-08-20T07:21:22.257Z,6.00
2022-08-20T07:23:50.295Z,4.00
2022-08-20T07:26:18.351Z,4.75
2022-08-20T07:29:11.442Z,5.00
2022-08-20T07:31:57.467Z,4.25
2022-08-20T07:34:25.082Z,4.00
2022-08-20T07:36:52.562Z,4.00
2022-08-20T07:39:23.619Z,4.25
2022-08-20T07:42:03.667Z,3.67
2022-08-20T07:44:31.714Z,4.00
2022-08-20T07:47:29.992Z,5.00
2022-08-20T07:49:58.306Z,3.00
2022-08-20T07:52:25.893Z,4.00
2022-08-20T07:54:53.939Z,5.75
2022-08-20T07:57:52.395Z,5.50
2022-08-20T08:00:23.166Z,3.67
2022-08-20T08:02:51.129Z,5.00
2022-08-20T08:05:19.179Z,5.00
2022-08-20T08:08:18.225Z,3.00
2022-08-20T08:11:10.264Z,4.00
2022-08-20T08:13:44.779Z,5.00
2022-08-20T08:16:12.282Z,5.25
2022-08-20T08:18:45.277Z,5.75
2022-08-20T08:21:17.545Z,6.00
2022-08-20T08:23:45.667Z,5.33
2022-08-20T08:26:16.237Z,4.25
2022-08-20T08:28:46.638Z,4.00
2022-08-20T08:31:14.618Z,6.33
2022-08-20T08:47:46.216Z,9.33
2022-08-20T08:50:49.974Z,10.67
2022-08-20T08:53:25.319Z,8.00
2022-08-20T08:56:18.296Z,9.33
2022-08-20T08:58:47.326Z,9.33
2022-08-20T09:01:55.540Z,6.33
2022-08-20T09:04:28.067Z,9.33
2022-08-20T09:06:57.542Z,7.67
2022-08-20T09:09:42.370Z,8.00
2022-08-20T09:12:15.658Z,8.33
2022-08-20T09:14:43.720Z,8.67
2022-08-20T09:17:11.763Z,8.00
2022-08-20T09:19:39.221Z,8.00
2022-08-20T09:22:17.877Z,7.00
2022-08-20T09:24:46.920Z,10.00
2022-08-20T09:27:14.971Z,8.00
2022-08-20T09:29:43.019Z,9.00
2022-08-20T09:32:17.294Z,7.00
2022-08-20T09:34:46.114Z,11.00
2022-08-20T09:37:14.173Z,8.00
2022-08-20T10:17:58.304Z,7.00
2022-08-20T10:20:50.187Z,7.33
2022-08-20T10:23:18.153Z,6.67
2022-08-20T10:25:46.149Z,7.00
2022-08-20T10:28:15.229Z,8.00
2022-08-20T10:30:43.254Z,8.00
2022-08-20T10:33:11.308Z,6.67
2022-08-20T10:35:39.370Z,6.00
2022-08-20T10:38:07.416Z,8.00
2022-08-20T10:40:35.472Z,7.00
2022-08-20T10:43:04.515Z,9.00
2022-08-20T10:45:32.594Z,9.00
2022-08-20T10:48:01.652Z,5.33
2022-08-20T10:50:30.680Z,8.00
2022-08-20T10:52:58.751Z,8.00
2022-08-20T10:55:26.877Z,8.00
2022-08-20T10:58:39.954Z,7.67
2022-08-20T11:01:12.489Z,7.00
2022-08-20T11:04:22.339Z,8.00
2022-08-20T11:06:50.059Z,7.00
2022-08-20T11:09:18.166Z,9.00
2022-08-20T11:11:46.193Z,8.67
2022-08-20T11:14:58.274Z,6.00
2022-08-20T11:17:30.955Z,7.00
2022-08-20T11:19:59.321Z,6.00
2022-08-20T11:22:27.364Z,5.00
2022-08-20T11:24:56.131Z,6.67
2022-08-20T11:27:28.481Z,6.33
2022-08-20T11:29:56.529Z,5.00
2022-08-20T11:32:25.604Z,6.33
2022-08-20T11:35:41.002Z,6.00
2022-08-20T11:38:03.706Z,6.67
2022-08-20T11:40:33.504Z,7.00
2022-08-20T11:43:17.569Z,6.33
2022-08-20T11:45:47.868Z,8.00
2022-08-20T11:48:15.932Z,7.00
2022-08-20T11:50:43.981Z,7.00
2022-08-20T11:53:13.021Z,6.00
2022-08-20T11:55:43.076Z,6.33
2022-08-20T11:58:12.635Z,6.00
2022-08-20T12:00:40.172Z,6.33
2022-08-20T12:03:12.775Z,5.67
2022-08-20T12:05:45.950Z,7.67
2022-08-20T12:08:25.221Z,6.33
2022-08-20T12:13:48.064Z,5.00
2022-08-20T12:16:26.944Z,7.67
2022-08-20T12:21:37.381Z,9.00
2022-08-20T12:24:07.606Z,7.00
2022-08-20T12:26:36.543Z,5.00
2022-08-20T12:29:04.768Z,6.00
2022-08-20T12:31:33.753Z,7.00
2022-08-20T12:34:01.804Z,7.00
2022-08-20T12:36:29.881Z,5.67
2022-08-20T12:38:58.035Z,6.00
2022-08-20T12:41:26.963Z,6.00
2022-08-20T12:43:55.464Z,5.00
2022-08-20T12:46:22.912Z,6.00
2022-08-20T12:48:52.113Z,6.33
2022-08-20T12:51:22.304Z,7.00
2022-08-20T12:53:50.384Z,9.00
2022-08-20T12:56:18.497Z,7.67
2022-08-20T12:58:48.157Z,6.00
2022-08-20T13:01:17.203Z,6.67
2022-08-20T13:03:47.564Z,6.00
2022-08-20T13:06:15.428Z,6.67
2022-08-20T13:08:44.424Z,3.67
2022-08-20T13:11:12.528Z,10.00
2022-08-20T13:13:40.594Z,5.00
2022-08-20T13:16:08.591Z,5.33
2022-08-20T13:18:37.062Z,6.33
2022-08-20T13:21:06.547Z,5.00
2022-08-20T13:23:34.777Z,6.33
2022-08-20T13:26:03.832Z,5.00
2022-08-20T13:28:31.893Z,9.00
2022-08-20T13:31:00.807Z,4.67
2022-08-20T13:33:29.974Z,6.00
2022-08-20T13:36:00.273Z,6.00
2022-08-20T13:38:33.062Z,5.33
2022-08-20T13:41:02.166Z,6.00
2022-08-20T13:43:31.179Z,7.00
2022-08-20T13:45:59.232Z,6.33
2022-08-20T13:48:27.287Z,6.00
2022-08-20T13:50:55.322Z,5.67
2022-08-20T13:53:25.371Z,5.00
2022-08-20T13:56:18.550Z,7.00
2022-08-20T13:58:46.521Z,5.00
2022-08-20T14:01:14.603Z,6.00
2022-08-20T14:03:42.661Z,5.67
2022-08-20T14:06:15.022Z,7.33
2022-08-20T14:08:44.585Z,6.33
2022-08-20T14:11:17.588Z,5.00
2022-08-20T14:14:16.727Z,6.00
2022-08-20T14:16:44.839Z,6.67
2022-08-20T14:19:14.761Z,5.00
2022-08-20T14:21:43.994Z,4.67
2022-08-20T14:24:11.998Z,7.33
2022-08-20T14:26:40.066Z,5.33
2022-08-20T14:29:08.124Z,6.00
2022-08-20T14:31:36.098Z,5.33
2022-08-20T14:34:04.186Z,6.67
2022-08-20T14:36:32.259Z,5.00
2022-08-20T14:39:00.330Z,6.00
2022-08-20T14:41:29.176Z,5.00
2022-08-20T14:43:57.379Z,6.00
2022-08-20T14:46:25.353Z,8.00
2022-08-20T14:48:56.298Z,9.00
2022-08-20T14:51:24.535Z,6.33
2022-08-20T14:53:54.488Z,8.00
2022-08-20T14:56:22.620Z,5.00
2022-08-20T14:58:51.193Z,9.00
2022-08-20T15:01:22.228Z,5.67
2022-08-20T15:03:49.769Z,6.33
2022-08-20T15:06:21.877Z,7.00
2022-08-20T15:08:51.874Z,6.00
2022-08-20T15:11:19.936Z,6.67
2022-08-20T15:13:47.992Z,9.00
2022-08-20T15:16:16.859Z,6.33
2022-08-20T15:18:45.084Z,6.00
2022-08-20T15:21:13.911Z,5.00
2022-08-20T15:23:42.182Z,5.00
2022-08-20T15:26:10.251Z,7.33
2022-08-20T15:28:42.374Z,5.00
2022-08-20T15:31:13.446Z,6.00
2022-08-20T15:33:44.398Z,6.67
2022-08-20T15:36:12.460Z,7.00
2022-08-20T15:38:40.216Z,6.00
2022-08-20T15:41:08.420Z,4.33
2022-08-20T15:43:36.631Z,7.00
2022-08-20T15:46:06.696Z,7.00
2022-08-20T15:48:48.596Z,6.33
2022-08-20T15:51:22.629Z,5.33
2022-08-20T15:54:01.880Z,5.67
2022-08-20T15:56:59.189Z,3.67
2022-08-20T16:00:21.493Z,6.00
2022-08-20T16:03:46.525Z,4.67
2022-08-20T16:06:19.442Z,4.67
2022-08-20T16:09:16.416Z,6.00
2022-08-20T16:11:47.502Z,6.00
2022-08-20T16:14:30.590Z,5.67
2022-08-20T16:17:07.674Z,7.00
2022-08-20T16:20:03.376Z,6.33
2022-08-20T16:22:37.564Z,5.00
2022-08-20T16:25:06.903Z,6.33
2022-08-20T16:27:47.991Z,4.00
2022-08-20T16:30:34.052Z,7.00
2022-08-20T16:33:09.069Z,4.00
2022-08-20T16:35:43.148Z,7.00
2022-08-20T16:38:27.189Z,5.33
2022-08-20T16:41:02.271Z,5.00
2022-08-20T16:43:36.193Z,5.00
2022-08-20T16:46:25.288Z,4.67
2022-08-20T16:49:00.233Z,6.00
2022-08-20T16:51:52.041Z,5.00
2022-08-20T16:54:28.531Z,5.00
2022-08-20T16:57:02.624Z,6.67
2022-08-20T16:59:30.657Z,5.33
2022-08-20T17:02:10.780Z,6.00
2022-08-20T17:04:58.769Z,4.33
2022-08-20T17:07:51.552Z,7.00
2022-08-20T17:10:31.288Z,5.67
2022-08-20T17:13:20.594Z,5.67
2022-08-20T17:16:09.200Z,1.00
2022-08-20T17:18:39.021Z,5.00
2022-08-20T17:21:40.102Z,5.33
2022-08-20T17:24:20.137Z,4.00
2022-08-20T17:26:54.007Z,4.67
2022-08-20T17:29:32.756Z,6.00
2022-08-20T17:32:16.301Z,6.00
2022-08-20T17:34:51.930Z,5.00
2022-08-20T17:37:24.745Z,5.00
2022-08-20T17:39:57.473Z,4.33
2022-08-20T17:42:28.503Z,5.00
2022-08-20T17:45:10.404Z,4.00
2022-08-20T17:47:39.632Z,4.33
2022-08-20T17:50:17.664Z,4.00
2022-08-20T17:52:53.800Z,6.00
2022-08-20T17:55:21.773Z,3.67
2022-08-20T17:57:50.827Z,4.00
2022-08-20T18:00:24.872Z,5.33
2022-08-20T18:02:54.971Z,5.33
2022-08-20T18:05:22.965Z,3.00
2022-08-20T18:08:12.037Z,4.33
2022-08-20T18:10:48.034Z,5.00
2022-08-20T18:13:20.914Z,3.67
2022-08-20T18:15:56.485Z,4.33
2022-08-20T18:18:31.241Z,4.67
2022-08-20T18:21:26.292Z,5.00
2022-08-20T18:24:29.342Z,4.33
2022-08-20T18:26:59.402Z,6.00
2022-08-20T18:29:36.450Z,4.33
2022-08-20T18:32:08.508Z,4.67
2022-08-20T18:34:41.576Z,4.67
2022-08-20T18:37:19.605Z,4.00
2022-08-20T18:39:48.722Z,4.00
2022-08-20T18:42:25.702Z,6.33
2022-08-20T18:44:54.763Z,4.00
2022-08-20T18:47:42.809Z,5.00
2022-08-20T18:50:18.862Z,5.00
2022-08-20T18:52:51.010Z,5.00
2022-08-20T18:55:39.953Z,4.00
2022-08-20T18:58:10.007Z,3.67
2022-08-20T19:00:46.053Z,3.67
2022-08-20T19:03:17.785Z,5.00
2022-08-20T19:06:03.668Z,4.33
2022-08-20T19:08:50.122Z,4.00
2022-08-20T19:11:55.278Z,5.00
2022-08-20T19:14:41.332Z,4.00
2022-08-20T19:17:17.391Z,4.00
2022-08-20T19:19:45.416Z,4.00
2022-08-20T19:22:13.885Z,6.67
2022-08-20T19:24:45.536Z,4.67
2022-08-20T19:27:13.575Z,3.00
2022-08-20T19:29:47.637Z,3.33
2022-08-20T19:32:30.674Z,3.67
2022-08-20T19:35:05.746Z,5.00
2022-08-20T19:37:50.592Z,3.00
2022-08-20T19:40:30.835Z,4.33
2022-08-20T19:43:00.032Z,4.00
2022-08-20T19:45:33.931Z,5.00
2022-08-20T19:48:08.975Z,6.00
2022-08-20T19:50:49.016Z,5.00
2022-08-20T19:53:30.929Z,3.00
2022-08-20T19:56:31.971Z,4.00
2022-08-20T19:59:08.201Z,4.00
2022-08-20T20:01:36.344Z,5.00
2022-08-20T20:04:09.300Z,4.00
2022-08-20T20:06:39.362Z,3.67
2022-08-20T20:09:10.421Z,3.00
2022-08-20T20:11:44.459Z,5.00
2022-08-20T20:14:13.400Z,3.00
2022-08-20T20:16:41.579Z,3.00
2022-08-20T20:19:26.380Z,3.67
2022-08-20T20:22:20.215Z,4.00
2022-08-20T20:25:14.317Z,4.67
2022-08-20T20:27:41.758Z,3.67
2022-08-20T20:30:13.814Z,3.00
2022-08-20T20:32:42.862Z,4.00
2022-08-20T20:35:10.920Z,2.00
2022-08-20T20:37:49.064Z,3.00
2022-08-20T20:40:25.473Z,3.00
2022-08-20T20:43:08.097Z,3.00
2022-08-20T20:45:45.130Z,3.67
2022-08-20T20:48:23.185Z,4.00
2022-08-20T20:50:54.046Z,3.00
2022-08-20T20:53:48.418Z,4.00
2022-08-20T20:56:45.356Z,3.00
2022-08-20T20:59:14.395Z,4.33
2022-08-20T21:01:48.698Z,5.33
2022-08-20T21:04:19.726Z,4.00
2022-08-20T21:06:47.527Z,4.00
2022-08-20T21:09:15.431Z,3.67
2022-08-20T21:11:43.633Z,4.00
2022-08-20T21:14:11.690Z,3.00
2022-08-20T21:16:39.734Z,3.00
2022-08-20T21:19:08.764Z,3.00
2022-08-20T21:21:37.821Z,2.33
2022-08-20T21:24:05.871Z,3.33
2022-08-20T21:26:33.417Z,3.00
2022-08-20T21:29:00.962Z,3.00
2022-08-20T21:31:32.018Z,4.67
2022-08-20T21:34:00.065Z,2.00
2022-08-20T21:36:28.280Z,2.33
2022-08-20T21:38:56.160Z,3.00
2022-08-20T21:41:29.865Z,3.33
2022-08-20T21:44:00.247Z,3.00
2022-08-20T21:46:29.299Z,4.67
2022-08-20T21:48:57.386Z,4.00
2022-08-20T21:51:25.401Z,2.33
2022-08-20T21:53:53.454Z,3.00
2022-08-20T21:56:22.536Z,3.00
2022-08-20T21:58:50.569Z,3.33
2022-08-20T22:14:15.671Z,2.67
2022-08-20T22:17:21.580Z,4.00
2022-08-20T22:20:22.071Z,3.00
2022-08-20T22:23:11.010Z,2.67
2022-08-20T22:26:16.525Z,3.00
2022-08-20T22:29:09.024Z,3.67
2022-08-20T22:31:38.656Z,5.00
2022-08-20T22:34:06.610Z,4.00
2022-08-20T22:36:34.726Z,3.33
2022-08-20T22:39:02.356Z,5.00
2022-08-20T22:42:01.291Z,3.67
2022-08-20T22:44:55.682Z,4.00
2022-08-20T22:48:00.952Z,4.00
2022-08-20T22:50:53.211Z,3.00
2022-08-20T22:53:24.069Z,3.00
2022-08-20T22:56:45.585Z,3.33
2022-08-20T22:59:52.908Z,2.67
2022-08-20T23:02:53.435Z,2.67
2022-08-20T23:05:46.487Z,3.67
2022-08-20T23:08:16.351Z,2.00
2022-08-20T23:11:08.432Z,4.00
2022-08-20T23:13:37.482Z,2.33
2022-08-20T23:16:05.533Z,3.67
2022-08-20T23:18:59.595Z,3.00
2022-08-20T23:22:05.974Z,4.33
2022-08-20T23:24:36.718Z,6.00
2022-08-20T23:27:06.796Z,4.00
2022-08-20T23:29:34.803Z,4.00
2022-08-20T23:32:03.211Z,2.00
2022-08-20T23:34:33.219Z,3.00
2022-08-20T23:37:02.024Z,3.00
2022-08-20T23:39:30.091Z,3.33
2022-08-20T23:41:59.627Z,3.00
2022-08-20T23:44:29.120Z,3.33
2022-08-20T23:47:03.010Z,3.33
2022-08-20T23:49:32.681Z,2.00
2022-08-20T23:52:01.697Z,5.00
2022-08-20T23:54:30.320Z,3.33
2022-08-20T23:56:59.371Z,2.00
2022-08-20T23:59:29.261Z,3.00
